sensor_id;sensor_type;location;lat;lon;timestamp;P1;durP1;ratioP1;P2;durP2;ratioP2
4885;SDS011;2457;51.788;6.136;2022-10-15T00:00:15;12.33;;;7.00;;
4885;SDS011;2457;51.788;6.136;2022-10-15T00:02:42;10.40;;;6.60;;
4885;SDS011;2457;51.788;6.136;2022-10-15T00:05:09;10.53;;;7.00;;
4885;SDS011;2457;51.788;6.136;2022-10-15T00:07:37;9.97;;;6.33;;
4885;SDS011;2457;51.788;6.136;2022-10-15T00:10:04;8.23;;;5.17;;
4885;SDS011;2457;51.788;6.136;2022-10-15T00:12:31;8.03;;;4.60;;
4885;SDS011;2457;51.788;6.136;2022-10-15T00:14:58;8.63;;;5.43;;
4885;SDS011;2457;51.788;6.136;2022-10-15T00:17:26;7.50;;;4.43;;
4885;SDS011;2457;51.788;6.136;2022-10-15T00:19:53;7.80;;;5.13;;
4885;SDS011;2457;51.788;6.136;2022-10-15T00:22:20;7.60;;;4.80;;
4885;SDS011;2457;51.788;6.136;2022-10-15T00:24:48;7.83;;;5.03;;
4885;SDS011;2457;51.788;6.136;2022-10-15T00:27:15;7.43;;;4.30;;
4885;SDS011;2457;51.788;6.136;2022-10-15T00:29:42;7.47;;;4.90;;
4885;SDS011;2457;51.788;6.136;2022-10-15T00:32:09;8.40;;;4.83;;
4885;SDS011;2457;51.788;6.136;2022-10-15T00:34:36;7.33;;;4.10;;
4885;SDS011;2457;51.788;6.136;2022-10-15T00:37:04;6.60;;;4.47;;
4885;SDS011;2457;51.788;6.136;2022-10-15T00:39:31;6.17;;;3.93;;
4885;SDS011;2457;51.788;6.136;2022-10-15T00:41:58;6.80;;;3.80;;
4885;SDS011;2457;51.788;6.136;2022-10-15T00:47:41;6.43;;;3.93;;
4885;SDS011;2457;51.788;6.136;2022-10-15T00:49:24;10.97;;;3.73;;
4885;SDS011;2457;51.788;6.136;2022-10-15T00:54:24;5.97;;;3.63;;
4885;SDS011;2457;51.788;6.136;2022-10-15T00:56:53;6.37;;;3.70;;
4885;SDS011;2457;51.788;6.136;2022-10-15T00:59:21;6.20;;;3.53;;
4885;SDS011;2457;51.788;6.136;2022-10-15T01:01:49;6.43;;;4.17;;
4885;SDS011;2457;51.788;6.136;2022-10-15T01:04:17;6.00;;;3.77;;
4885;SDS011;2457;51.788;6.136;2022-10-15T01:06:44;6.63;;;3.83;;
4885;SDS011;2457;51.788;6.136;2022-10-15T01:09:12;7.80;;;3.77;;
4885;SDS011;2457;51.788;6.136;2022-10-15T01:11:46;8.23;;;4.30;;
4885;SDS011;2457;51.788;6.136;2022-10-15T01:27:43;6.80;;;4.27;;
4885;SDS011;2457;51.788;6.136;2022-10-15T01:30:18;6.37;;;4.00;;
4885;SDS011;2457;51.788;6.136;2022-10-15T01:37:51;8.57;;;4.57;;
4885;SDS011;2457;51.788;6.136;2022-10-15T01:40:30;9.03;;;4.60;;
4885;SDS011;2457;51.788;6.136;2022-10-15T01:42:56;12.50;;;4.50;;
4885;SDS011;2457;51.788;6.136;2022-10-15T01:45:39;10.20;;;4.70;;
4885;SDS011;2457;51.788;6.136;2022-10-15T01:48:02;9.40;;;4.43;;
4885;SDS011;2457;51.788;6.136;2022-10-15T01:50:31;11.30;;;4.70;;
4885;SDS011;2457;51.788;6.136;2022-10-15T01:52:59;8.83;;;4.97;;
4885;SDS011;2457;51.788;6.136;2022-10-15T01:55:27;8.40;;;4.97;;
4885;SDS011;2457;51.788;6.136;2022-10-15T01:57:56;9.23;;;5.30;;
4885;SDS011;2457;51.788;6.136;2022-10-15T02:00:24;8.97;;;5.57;;
4885;SDS011;2457;51.788;6.136;2022-10-15T02:02:51;13.57;;;5.40;;
4885;SDS011;2457;51.788;6.136;2022-10-15T02:05:23;10.87;;;5.50;;
4885;SDS011;2457;51.788;6.136;2022-10-15T02:07:58;9.13;;;5.40;;
4885;SDS011;2457;51.788;6.136;2022-10-15T02:10:30;9.10;;;5.03;;
4885;SDS011;2457;51.788;6.136;2022-10-15T02:15:45;11.23;;;6.30;;
4885;SDS011;2457;51.788;6.136;2022-10-15T02:18:09;14.00;;;5.90;;
4885;SDS011;2457;51.788;6.136;2022-10-15T02:23:12;12.80;;;5.83;;
4885;SDS011;2457;51.788;6.136;2022-10-15T02:25:37;15.30;;;6.50;;
4885;SDS011;2457;51.788;6.136;2022-10-15T02:28:06;13.60;;;6.17;;
4885;SDS011;2457;51.788;6.136;2022-10-15T02:30:35;18.10;;;7.70;;
4885;SDS011;2457;51.788;6.136;2022-10-15T02:33:03;12.60;;;6.70;;
4885;SDS011;2457;51.788;6.136;2022-10-15T02:35:31;11.77;;;5.97;;
4885;SDS011;2457;51.788;6.136;2022-10-15T02:38:00;14.97;;;8.33;;
4885;SDS011;2457;51.788;6.136;2022-10-15T02:40:27;13.30;;;7.40;;
4885;SDS011;2457;51.788;6.136;2022-10-15T02:42:55;13.47;;;7.03;;
4885;SDS011;2457;51.788;6.136;2022-10-15T02:45:23;14.87;;;8.93;;
4885;SDS011;2457;51.788;6.136;2022-10-15T02:47:50;14.20;;;7.93;;
4885;SDS011;2457;51.788;6.136;2022-10-15T02:50:17;15.73;;;8.57;;
4885;SDS011;2457;51.788;6.136;2022-10-15T02:52:44;12.87;;;8.07;;
4885;SDS011;2457;51.788;6.136;2022-10-15T02:55:12;16.63;;;9.67;;
4885;SDS011;2457;51.788;6.136;2022-10-15T02:57:39;17.50;;;8.83;;
4885;SDS011;2457;51.788;6.136;2022-10-15T03:00:07;20.10;;;9.30;;
4885;SDS011;2457;51.788;6.136;2022-10-15T03:02:34;17.03;;;9.77;;
4885;SDS011;2457;51.788;6.136;2022-10-15T03:05:01;19.33;;;10.53;;
4885;SDS011;2457;51.788;6.136;2022-10-15T03:07:29;18.17;;;9.67;;
4885;SDS011;2457;51.788;6.136;2022-10-15T03:09:56;16.43;;;9.00;;
4885;SDS011;2457;51.788;6.136;2022-10-15T03:12:23;17.27;;;9.60;;
4885;SDS011;2457;51.788;6.136;2022-10-15T03:14:51;15.70;;;8.73;;
4885;SDS011;2457;51.788;6.136;2022-10-15T03:17:18;17.50;;;9.10;;
4885;SDS011;2457;51.788;6.136;2022-10-15T03:19:46;14.93;;;8.90;;
4885;SDS011;2457;51.788;6.136;2022-10-15T03:22:13;16.47;;;10.00;;
4885;SDS011;2457;51.788;6.136;2022-10-15T03:24:40;15.20;;;9.33;;
4885;SDS011;2457;51.788;6.136;2022-10-15T03:27:07;16.43;;;9.77;;
4885;SDS011;2457;51.788;6.136;2022-10-15T03:29:35;23.50;;;9.60;;
4885;SDS011;2457;51.788;6.136;2022-10-15T03:32:02;14.80;;;9.00;;
4885;SDS011;2457;51.788;6.136;2022-10-15T03:34:29;18.53;;;10.27;;
4885;SDS011;2457;51.788;6.136;2022-10-15T03:36:56;18.53;;;9.73;;
4885;SDS011;2457;51.788;6.136;2022-10-15T03:39:24;16.27;;;9.23;;
4885;SDS011;2457;51.788;6.136;2022-10-15T03:41:51;17.63;;;8.23;;
4885;SDS011;2457;51.788;6.136;2022-10-15T03:44:19;17.80;;;9.50;;
4885;SDS011;2457;51.788;6.136;2022-10-15T03:46:46;14.10;;;8.20;;
4885;SDS011;2457;51.788;6.136;2022-10-15T03:49:13;14.93;;;9.10;;
4885;SDS011;2457;51.788;6.136;2022-10-15T03:51:40;15.07;;;8.60;;
4885;SDS011;2457;51.788;6.136;2022-10-15T03:54:08;15.70;;;8.47;;
4885;SDS011;2457;51.788;6.136;2022-10-15T03:56:35;16.47;;;8.80;;
4885;SDS011;2457;51.788;6.136;2022-10-15T03:59:02;14.77;;;9.50;;
4885;SDS011;2457;51.788;6.136;2022-10-15T04:01:29;14.33;;;7.50;;
4885;SDS011;2457;51.788;6.136;2022-10-15T04:03:57;14.10;;;8.00;;
4885;SDS011;2457;51.788;6.136;2022-10-15T04:06:24;12.67;;;8.17;;
4885;SDS011;2457;51.788;6.136;2022-10-15T04:08:51;14.10;;;8.30;;
4885;SDS011;2457;51.788;6.136;2022-10-15T04:11:18;14.70;;;8.67;;
4885;SDS011;2457;51.788;6.136;2022-10-15T04:13:52;15.50;;;8.63;;
4885;SDS011;2457;51.788;6.136;2022-10-15T04:16:24;14.40;;;7.70;;
4885;SDS011;2457;51.788;6.136;2022-10-15T04:18:51;14.97;;;8.70;;
4885;SDS011;2457;51.788;6.136;2022-10-15T04:21:18;15.20;;;8.53;;
4885;SDS011;2457;51.788;6.136;2022-10-15T04:23:46;13.67;;;8.13;;
4885;SDS011;2457;51.788;6.136;2022-10-15T04:26:13;16.00;;;9.53;;
4885;SDS011;2457;51.788;6.136;2022-10-15T04:28:41;14.80;;;9.77;;
4885;SDS011;2457;51.788;6.136;2022-10-15T04:31:08;20.50;;;10.00;;
4885;SDS011;2457;51.788;6.136;2022-10-15T04:33:35;15.37;;;9.40;;
4885;SDS011;2457;51.788;6.136;2022-10-15T04:36:04;19.87;;;10.50;;
4885;SDS011;2457;51.788;6.136;2022-10-15T04:38:32;16.27;;;10.70;;
4885;SDS011;2457;51.788;6.136;2022-10-15T04:41:00;17.40;;;11.93;;
4885;SDS011;2457;51.788;6.136;2022-10-15T04:43:28;20.20;;;11.00;;
4885;SDS011;2457;51.788;6.136;2022-10-15T04:45:56;17.40;;;11.07;;
4885;SDS011;2457;51.788;6.136;2022-10-15T04:48:24;18.00;;;11.13;;
4885;SDS011;2457;51.788;6.136;2022-10-15T04:50:51;17.33;;;11.30;;
4885;SDS011;2457;51.788;6.136;2022-10-15T04:53:19;18.50;;;11.57;;
4885;SDS011;2457;51.788;6.136;2022-10-15T04:55:46;19.20;;;11.50;;
4885;SDS011;2457;51.788;6.136;2022-10-15T04:58:13;19.23;;;12.80;;
4885;SDS011;2457;51.788;6.136;2022-10-15T05:00:41;21.90;;;12.60;;
4885;SDS011;2457;51.788;6.136;2022-10-15T05:03:08;19.00;;;11.80;;
4885;SDS011;2457;51.788;6.136;2022-10-15T05:05:35;20.90;;;11.83;;
4885;SDS011;2457;51.788;6.136;2022-10-15T05:08:02;21.00;;;12.20;;
4885;SDS011;2457;51.788;6.136;2022-10-15T05:10:30;20.30;;;12.53;;
4885;SDS011;2457;51.788;6.136;2022-10-15T05:12:57;16.67;;;11.10;;
4885;SDS011;2457;51.788;6.136;2022-10-15T05:15:25;19.40;;;12.70;;
4885;SDS011;2457;51.788;6.136;2022-10-15T05:17:52;18.73;;;11.80;;
4885;SDS011;2457;51.788;6.136;2022-10-15T05:20:19;25.47;;;12.53;;
4885;SDS011;2457;51.788;6.136;2022-10-15T05:22:47;22.83;;;12.90;;
4885;SDS011;2457;51.788;6.136;2022-10-15T05:25:14;22.60;;;12.70;;
4885;SDS011;2457;51.788;6.136;2022-10-15T05:27:41;21.67;;;12.20;;
4885;SDS011;2457;51.788;6.136;2022-10-15T05:30:09;23.73;;;12.90;;
4885;SDS011;2457;51.788;6.136;2022-10-15T05:32:36;23.03;;;13.07;;
4885;SDS011;2457;51.788;6.136;2022-10-15T05:35:04;20.17;;;12.10;;
4885;SDS011;2457;51.788;6.136;2022-10-15T05:37:31;23.17;;;12.73;;
4885;SDS011;2457;51.788;6.136;2022-10-15T05:39:58;19.20;;;12.60;;
4885;SDS011;2457;51.788;6.136;2022-10-15T05:42:26;17.53;;;11.80;;
4885;SDS011;2457;51.788;6.136;2022-10-15T05:44:53;19.50;;;11.40;;
4885;SDS011;2457;51.788;6.136;2022-10-15T05:47:20;19.13;;;12.10;;
4885;SDS011;2457;51.788;6.136;2022-10-15T05:49:47;18.03;;;11.80;;
4885;SDS011;2457;51.788;6.136;2022-10-15T05:52:15;22.67;;;11.13;;
4885;SDS011;2457;51.788;6.136;2022-10-15T05:54:42;20.07;;;12.80;;
4885;SDS011;2457;51.788;6.136;2022-10-15T05:57:09;19.40;;;11.47;;
4885;SDS011;2457;51.788;6.136;2022-10-15T05:59:36;22.47;;;13.30;;
4885;SDS011;2457;51.788;6.136;2022-10-15T06:02:04;22.27;;;12.93;;
4885;SDS011;2457;51.788;6.136;2022-10-15T06:04:31;19.80;;;11.80;;
4885;SDS011;2457;51.788;6.136;2022-10-15T06:06:58;20.63;;;11.83;;
4885;SDS011;2457;51.788;6.136;2022-10-15T06:09:26;21.90;;;12.60;;
4885;SDS011;2457;51.788;6.136;2022-10-15T06:11:53;20.77;;;13.23;;
4885;SDS011;2457;51.788;6.136;2022-10-15T06:14:21;18.30;;;11.50;;
4885;SDS011;2457;51.788;6.136;2022-10-15T06:16:48;15.70;;;10.60;;
4885;SDS011;2457;51.788;6.136;2022-10-15T06:19:17;21.77;;;11.63;;
4885;SDS011;2457;51.788;6.136;2022-10-15T06:21:44;19.03;;;12.00;;
4885;SDS011;2457;51.788;6.136;2022-10-15T06:24:11;17.60;;;10.13;;
4885;SDS011;2457;51.788;6.136;2022-10-15T06:26:38;20.50;;;12.10;;
4885;SDS011;2457;51.788;6.136;2022-10-15T06:29:06;21.30;;;12.20;;
4885;SDS011;2457;51.788;6.136;2022-10-15T06:31:33;18.43;;;11.30;;
4885;SDS011;2457;51.788;6.136;2022-10-15T06:34:00;20.33;;;12.77;;
4885;SDS011;2457;51.788;6.136;2022-10-15T06:36:27;22.97;;;12.53;;
4885;SDS011;2457;51.788;6.136;2022-10-15T06:38:55;16.60;;;10.73;;
4885;SDS011;2457;51.788;6.136;2022-10-15T06:41:22;20.03;;;11.83;;
4885;SDS011;2457;51.788;6.136;2022-10-15T06:43:49;19.10;;;11.57;;
4885;SDS011;2457;51.788;6.136;2022-10-15T06:46:16;19.40;;;12.00;;
4885;SDS011;2457;51.788;6.136;2022-10-15T06:48:44;20.20;;;12.20;;
4885;SDS011;2457;51.788;6.136;2022-10-15T06:51:11;19.87;;;11.80;;
4885;SDS011;2457;51.788;6.136;2022-10-15T06:53:39;19.00;;;10.70;;
4885;SDS011;2457;51.788;6.136;2022-10-15T06:56:07;20.87;;;12.17;;
4885;SDS011;2457;51.788;6.136;2022-10-15T06:58:34;17.83;;;11.33;;
4885;SDS011;2457;51.788;6.136;2022-10-15T07:01:02;18.30;;;11.03;;
4885;SDS011;2457;51.788;6.136;2022-10-15T07:03:30;20.30;;;12.40;;
4885;SDS011;2457;51.788;6.136;2022-10-15T07:06:01;19.47;;;11.47;;
4885;SDS011;2457;51.788;6.136;2022-10-15T07:08:29;19.00;;;11.40;;
4885;SDS011;2457;51.788;6.136;2022-10-15T07:10:56;22.27;;;11.10;;
4885;SDS011;2457;51.788;6.136;2022-10-15T07:13:23;19.90;;;11.47;;
4885;SDS011;2457;51.788;6.136;2022-10-15T07:15:50;21.70;;;9.70;;
4885;SDS011;2457;51.788;6.136;2022-10-15T07:18:19;17.40;;;10.20;;
4885;SDS011;2457;51.788;6.136;2022-10-15T07:20:47;16.90;;;9.73;;
4885;SDS011;2457;51.788;6.136;2022-10-15T07:23:14;17.83;;;10.10;;
4885;SDS011;2457;51.788;6.136;2022-10-15T07:25:43;19.40;;;11.27;;
4885;SDS011;2457;51.788;6.136;2022-10-15T07:28:10;19.93;;;11.43;;
4885;SDS011;2457;51.788;6.136;2022-10-15T07:30:37;19.47;;;10.60;;
4885;SDS011;2457;51.788;6.136;2022-10-15T07:33:05;17.77;;;9.23;;
4885;SDS011;2457;51.788;6.136;2022-10-15T07:35:32;16.83;;;10.10;;
4885;SDS011;2457;51.788;6.136;2022-10-15T07:37:59;25.30;;;9.43;;
4885;SDS011;2457;51.788;6.136;2022-10-15T07:40:27;15.57;;;9.10;;
4885;SDS011;2457;51.788;6.136;2022-10-15T07:42:55;18.83;;;10.17;;
4885;SDS011;2457;51.788;6.136;2022-10-15T07:45:23;17.33;;;8.70;;
4885;SDS011;2457;51.788;6.136;2022-10-15T07:47:51;16.10;;;8.60;;
4885;SDS011;2457;51.788;6.136;2022-10-15T07:50:19;13.80;;;7.97;;
4885;SDS011;2457;51.788;6.136;2022-10-15T07:52:46;16.07;;;8.87;;
4885;SDS011;2457;51.788;6.136;2022-10-15T07:55:14;19.23;;;9.27;;
4885;SDS011;2457;51.788;6.136;2022-10-15T07:57:42;14.67;;;8.70;;
4885;SDS011;2457;51.788;6.136;2022-10-15T08:00:09;15.63;;;9.00;;
4885;SDS011;2457;51.788;6.136;2022-10-15T08:02:37;18.23;;;8.70;;
4885;SDS011;2457;51.788;6.136;2022-10-15T08:05:04;20.97;;;9.73;;
4885;SDS011;2457;51.788;6.136;2022-10-15T08:07:32;15.53;;;9.33;;
4885;SDS011;2457;51.788;6.136;2022-10-15T08:09:59;15.80;;;8.97;;
4885;SDS011;2457;51.788;6.136;2022-10-15T08:12:26;16.77;;;9.30;;
4885;SDS011;2457;51.788;6.136;2022-10-15T08:14:54;18.17;;;9.77;;
4885;SDS011;2457;51.788;6.136;2022-10-15T08:17:21;17.80;;;10.00;;
4885;SDS011;2457;51.788;6.136;2022-10-15T08:19:48;16.93;;;10.43;;
4885;SDS011;2457;51.788;6.136;2022-10-15T08:22:15;17.90;;;10.20;;
4885;SDS011;2457;51.788;6.136;2022-10-15T08:24:43;17.37;;;9.50;;
4885;SDS011;2457;51.788;6.136;2022-10-15T08:27:10;20.43;;;10.73;;
4885;SDS011;2457;51.788;6.136;2022-10-15T08:29:37;18.40;;;9.60;;
4885;SDS011;2457;51.788;6.136;2022-10-15T08:32:04;20.43;;;10.60;;
4885;SDS011;2457;51.788;6.136;2022-10-15T08:34:32;15.43;;;9.20;;
4885;SDS011;2457;51.788;6.136;2022-10-15T08:36:59;19.90;;;9.80;;
4885;SDS011;2457;51.788;6.136;2022-10-15T08:39:26;18.40;;;10.60;;
4885;SDS011;2457;51.788;6.136;2022-10-15T08:41:54;19.00;;;10.67;;
4885;SDS011;2457;51.788;6.136;2022-10-15T08:44:23;18.57;;;9.70;;
4885;SDS011;2457;51.788;6.136;2022-10-15T08:46:52;17.57;;;9.50;;
4885;SDS011;2457;51.788;6.136;2022-10-15T08:50:03;16.27;;;9.90;;
4885;SDS011;2457;51.788;6.136;2022-10-15T08:51:53;18.03;;;10.00;;
4885;SDS011;2457;51.788;6.136;2022-10-15T08:54:20;16.63;;;9.47;;
4885;SDS011;2457;51.788;6.136;2022-10-15T08:56:48;18.30;;;10.00;;
4885;SDS011;2457;51.788;6.136;2022-10-15T09:07:11;19.30;;;9.00;;
4885;SDS011;2457;51.788;6.136;2022-10-15T09:09:41;16.63;;;8.87;;
4885;SDS011;2457;51.788;6.136;2022-10-15T09:14:51;13.47;;;7.37;;
4885;SDS011;2457;51.788;6.136;2022-10-15T09:17:21;13.73;;;7.73;;
4885;SDS011;2457;51.788;6.136;2022-10-15T09:19:56;13.07;;;7.07;;
4885;SDS011;2457;51.788;6.136;2022-10-15T09:22:22;15.90;;;7.47;;
4885;SDS011;2457;51.788;6.136;2022-10-15T09:24:48;15.40;;;7.93;;
4885;SDS011;2457;51.788;6.136;2022-10-15T09:32:24;14.47;;;6.30;;
4885;SDS011;2457;51.788;6.136;2022-10-15T09:37:42;15.53;;;6.37;;
4885;SDS011;2457;51.788;6.136;2022-10-15T09:42:44;13.20;;;6.27;;
4885;SDS011;2457;51.788;6.136;2022-10-15T09:45:12;14.13;;;6.57;;
4885;SDS011;2457;51.788;6.136;2022-10-15T09:47:40;15.30;;;7.20;;
4885;SDS011;2457;51.788;6.136;2022-10-15T09:50:09;17.80;;;7.87;;
4885;SDS011;2457;51.788;6.136;2022-10-15T09:57:45;11.97;;;6.30;;
4885;SDS011;2457;51.788;6.136;2022-10-15T10:00:12;11.53;;;5.70;;
4885;SDS011;2457;51.788;6.136;2022-10-15T10:02:40;14.37;;;6.30;;
4885;SDS011;2457;51.788;6.136;2022-10-15T10:07:48;12.33;;;6.17;;
4885;SDS011;2457;51.788;6.136;2022-10-15T10:10:27;11.63;;;5.87;;
4885;SDS011;2457;51.788;6.136;2022-10-15T10:12:51;14.03;;;6.40;;
4885;SDS011;2457;51.788;6.136;2022-10-15T10:15:40;15.90;;;6.30;;
4885;SDS011;2457;51.788;6.136;2022-10-15T10:18:02;10.10;;;6.23;;
4885;SDS011;2457;51.788;6.136;2022-10-15T10:20:32;11.70;;;6.10;;
4885;SDS011;2457;51.788;6.136;2022-10-15T10:23:00;9.70;;;5.53;;
4885;SDS011;2457;51.788;6.136;2022-10-15T10:25:29;11.30;;;5.47;;
4885;SDS011;2457;51.788;6.136;2022-10-15T10:27:58;11.60;;;5.27;;
4885;SDS011;2457;51.788;6.136;2022-10-15T10:30:25;14.27;;;4.83;;
4885;SDS011;2457;51.788;6.136;2022-10-15T10:32:56;10.80;;;5.37;;
4885;SDS011;2457;51.788;6.136;2022-10-15T10:35:25;11.60;;;5.40;;
4885;SDS011;2457;51.788;6.136;2022-10-15T10:37:53;10.90;;;5.57;;
4885;SDS011;2457;51.788;6.136;2022-10-15T10:40:27;9.40;;;4.70;;
4885;SDS011;2457;51.788;6.136;2022-10-15T10:43:11;10.07;;;5.10;;
4885;SDS011;2457;51.788;6.136;2022-10-15T10:45:39;8.87;;;4.40;;
4885;SDS011;2457;51.788;6.136;2022-10-15T10:48:17;9.90;;;4.70;;
4885;SDS011;2457;51.788;6.136;2022-10-15T10:50:45;6.87;;;3.93;;
4885;SDS011;2457;51.788;6.136;2022-10-15T10:53:20;8.77;;;4.30;;
4885;SDS011;2457;51.788;6.136;2022-10-15T10:55:47;7.53;;;4.10;;
4885;SDS011;2457;51.788;6.136;2022-10-15T10:58:21;8.67;;;4.40;;
4885;SDS011;2457;51.788;6.136;2022-10-15T11:00:46;10.07;;;4.77;;
4885;SDS011;2457;51.788;6.136;2022-10-15T11:05:42;9.57;;;4.50;;
4885;SDS011;2457;51.788;6.136;2022-10-15T11:08:13;7.20;;;3.70;;
4885;SDS011;2457;51.788;6.136;2022-10-15T11:10:51;7.53;;;4.00;;
4885;SDS011;2457;51.788;6.136;2022-10-15T11:13:21;7.00;;;3.50;;
4885;SDS011;2457;51.788;6.136;2022-10-15T11:15:48;6.53;;;3.73;;
4885;SDS011;2457;51.788;6.136;2022-10-15T11:21:05;7.83;;;4.00;;
4885;SDS011;2457;51.788;6.136;2022-10-15T11:26:14;8.10;;;3.77;;
4885;SDS011;2457;51.788;6.136;2022-10-15T11:28:45;9.70;;;4.57;;
4885;SDS011;2457;51.788;6.136;2022-10-15T11:39:20;8.27;;;4.10;;
4885;SDS011;2457;51.788;6.136;2022-10-15T11:41:38;6.30;;;3.03;;
4885;SDS011;2457;51.788;6.136;2022-10-15T11:57:33;5.67;;;2.63;;
4885;SDS011;2457;51.788;6.136;2022-10-15T12:00:05;4.87;;;2.23;;
4885;SDS011;2457;51.788;6.136;2022-10-15T12:02:32;6.53;;;2.07;;
4885;SDS011;2457;51.788;6.136;2022-10-15T12:05:00;5.93;;;2.40;;
4885;SDS011;2457;51.788;6.136;2022-10-15T12:07:39;7.33;;;2.37;;
4885;SDS011;2457;51.788;6.136;2022-10-15T12:15:14;4.97;;;2.10;;
4885;SDS011;2457;51.788;6.136;2022-10-15T12:17:49;4.90;;;2.30;;
4885;SDS011;2457;51.788;6.136;2022-10-15T12:20:16;4.20;;;1.77;;
4885;SDS011;2457;51.788;6.136;2022-10-15T12:25:53;6.50;;;1.80;;
4885;SDS011;2457;51.788;6.136;2022-10-15T12:28:01;5.23;;;2.10;;
4885;SDS011;2457;51.788;6.136;2022-10-15T12:30:32;4.43;;;1.90;;
4885;SDS011;2457;51.788;6.136;2022-10-15T12:33:19;5.47;;;1.83;;
4885;SDS011;2457;51.788;6.136;2022-10-15T12:35:36;4.50;;;1.87;;
4885;SDS011;2457;51.788;6.136;2022-10-15T12:38:11;4.30;;;1.80;;
4885;SDS011;2457;51.788;6.136;2022-10-15T12:40:33;5.30;;;2.20;;
4885;SDS011;2457;51.788;6.136;2022-10-15T12:43:02;4.73;;;1.97;;
4885;SDS011;2457;51.788;6.136;2022-10-15T12:45:34;6.10;;;1.70;;
4885;SDS011;2457;51.788;6.136;2022-10-15T12:50:34;5.10;;;2.07;;
4885;SDS011;2457;51.788;6.136;2022-10-15T12:53:03;7.97;;;2.00;;
4885;SDS011;2457;51.788;6.136;2022-10-15T12:55:35;4.60;;;1.67;;
4885;SDS011;2457;51.788;6.136;2022-10-15T12:58:03;5.70;;;1.83;;
4885;SDS011;2457;51.788;6.136;2022-10-15T13:00:33;4.40;;;1.87;;
4885;SDS011;2457;51.788;6.136;2022-10-15T13:03:13;4.63;;;1.77;;
4885;SDS011;2457;51.788;6.136;2022-10-15T13:05:35;4.47;;;1.93;;
4885;SDS011;2457;51.788;6.136;2022-10-15T13:08:03;4.63;;;1.80;;
4885;SDS011;2457;51.788;6.136;2022-10-15T13:13:02;7.10;;;2.00;;
4885;SDS011;2457;51.788;6.136;2022-10-15T13:15:29;6.33;;;2.20;;
4885;SDS011;2457;51.788;6.136;2022-10-15T13:17:58;5.53;;;2.00;;
4885;SDS011;2457;51.788;6.136;2022-10-15T13:23:15;5.23;;;2.20;;
4885;SDS011;2457;51.788;6.136;2022-10-15T13:25:35;5.03;;;2.00;;
4885;SDS011;2457;51.788;6.136;2022-10-15T13:28:21;5.07;;;2.40;;
4885;SDS011;2457;51.788;6.136;2022-10-15T13:30:31;4.97;;;2.37;;
4885;SDS011;2457;51.788;6.136;2022-10-15T13:32:58;5.77;;;2.10;;
4885;SDS011;2457;51.788;6.136;2022-10-15T13:35:29;5.23;;;2.50;;
4885;SDS011;2457;51.788;6.136;2022-10-15T13:37:58;5.87;;;2.70;;
4885;SDS011;2457;51.788;6.136;2022-10-15T13:40:26;5.20;;;2.40;;
4885;SDS011;2457;51.788;6.136;2022-10-15T13:43:02;5.90;;;2.50;;
4885;SDS011;2457;51.788;6.136;2022-10-15T13:45:26;6.17;;;2.40;;
4885;SDS011;2457;51.788;6.136;2022-10-15T13:47:54;5.10;;;2.23;;
4885;SDS011;2457;51.788;6.136;2022-10-15T13:50:23;5.20;;;2.67;;
4885;SDS011;2457;51.788;6.136;2022-10-15T13:55:26;6.00;;;2.37;;
4885;SDS011;2457;51.788;6.136;2022-10-15T13:57:57;6.17;;;2.43;;
4885;SDS011;2457;51.788;6.136;2022-10-15T14:00:24;4.67;;;1.83;;
4885;SDS011;2457;51.788;6.136;2022-10-15T14:05:37;5.00;;;1.93;;
4885;SDS011;2457;51.788;6.136;2022-10-15T14:08:04;4.07;;;1.87;;
4885;SDS011;2457;51.788;6.136;2022-10-15T14:10:31;6.77;;;1.97;;
4885;SDS011;2457;51.788;6.136;2022-10-15T14:12:59;4.60;;;2.00;;
4885;SDS011;2457;51.788;6.136;2022-10-15T14:15:39;5.17;;;2.43;;
4885;SDS011;2457;51.788;6.136;2022-10-15T14:18:07;5.13;;;2.10;;
4885;SDS011;2457;51.788;6.136;2022-10-15T14:20:34;5.10;;;2.37;;
4885;SDS011;2457;51.788;6.136;2022-10-15T14:23:02;5.00;;;2.43;;
4885;SDS011;2457;51.788;6.136;2022-10-15T14:25:29;5.07;;;2.20;;
4885;SDS011;2457;51.788;6.136;2022-10-15T14:27:56;4.83;;;2.43;;
4885;SDS011;2457;51.788;6.136;2022-10-15T14:30:29;6.87;;;2.30;;
4885;SDS011;2457;51.788;6.136;2022-10-15T14:32:55;4.60;;;2.13;;
4885;SDS011;2457;51.788;6.136;2022-10-15T14:38:04;6.10;;;3.10;;
4885;SDS011;2457;51.788;6.136;2022-10-15T14:40:32;4.87;;;1.97;;
4885;SDS011;2457;51.788;6.136;2022-10-15T14:43:15;3.93;;;1.60;;
4885;SDS011;2457;51.788;6.136;2022-10-15T14:48:30;3.57;;;1.13;;
4885;SDS011;2457;51.788;6.136;2022-10-15T14:50:46;4.50;;;1.20;;
4885;SDS011;2457;51.788;6.136;2022-10-15T14:53:18;4.07;;;1.33;;
4885;SDS011;2457;51.788;6.136;2022-10-15T14:55:49;4.77;;;1.40;;
4885;SDS011;2457;51.788;6.136;2022-10-15T14:58:22;3.80;;;1.23;;
4885;SDS011;2457;51.788;6.136;2022-10-15T15:00:47;4.03;;;1.20;;
4885;SDS011;2457;51.788;6.136;2022-10-15T15:03:18;4.00;;;1.40;;
4885;SDS011;2457;51.788;6.136;2022-10-15T15:05:50;4.17;;;1.13;;
4885;SDS011;2457;51.788;6.136;2022-10-15T15:08:19;3.83;;;1.07;;
4885;SDS011;2457;51.788;6.136;2022-10-15T15:10:47;3.43;;;1.10;;
4885;SDS011;2457;51.788;6.136;2022-10-15T15:13:25;3.43;;;1.10;;
4885;SDS011;2457;51.788;6.136;2022-10-15T15:15:53;4.57;;;1.30;;
4885;SDS011;2457;51.788;6.136;2022-10-15T15:18:20;3.40;;;1.03;;
4885;SDS011;2457;51.788;6.136;2022-10-15T15:20:48;3.87;;;1.20;;
4885;SDS011;2457;51.788;6.136;2022-10-15T15:23:17;3.90;;;1.00;;
4885;SDS011;2457;51.788;6.136;2022-10-15T15:25:45;3.53;;;1.20;;
4885;SDS011;2457;51.788;6.136;2022-10-15T15:28:13;3.80;;;1.40;;
4885;SDS011;2457;51.788;6.136;2022-10-15T15:30:41;3.60;;;1.33;;
4885;SDS011;2457;51.788;6.136;2022-10-15T15:33:14;4.83;;;1.70;;
4885;SDS011;2457;51.788;6.136;2022-10-15T15:35:39;4.03;;;1.50;;
4885;SDS011;2457;51.788;6.136;2022-10-15T15:38:08;3.47;;;1.40;;
4885;SDS011;2457;51.788;6.136;2022-10-15T15:40:36;3.70;;;1.20;;
4885;SDS011;2457;51.788;6.136;2022-10-15T15:43:03;3.73;;;1.10;;
4885;SDS011;2457;51.788;6.136;2022-10-15T15:45:31;3.80;;;1.13;;
4885;SDS011;2457;51.788;6.136;2022-10-15T15:47:58;3.90;;;1.40;;
4885;SDS011;2457;51.788;6.136;2022-10-15T15:50:27;5.03;;;1.33;;
4885;SDS011;2457;51.788;6.136;2022-10-15T15:52:54;4.93;;;1.50;;
4885;SDS011;2457;51.788;6.136;2022-10-15T15:55:21;3.50;;;1.20;;
4885;SDS011;2457;51.788;6.136;2022-10-15T15:57:49;4.53;;;1.10;;
4885;SDS011;2457;51.788;6.136;2022-10-15T16:00:17;3.77;;;1.20;;
4885;SDS011;2457;51.788;6.136;2022-10-15T16:02:44;4.33;;;1.57;;
4885;SDS011;2457;51.788;6.136;2022-10-15T16:05:13;4.73;;;1.20;;
4885;SDS011;2457;51.788;6.136;2022-10-15T16:07:41;3.93;;;1.30;;
4885;SDS011;2457;51.788;6.136;2022-10-15T16:10:08;4.13;;;1.57;;
4885;SDS011;2457;51.788;6.136;2022-10-15T16:12:38;4.40;;;1.73;;
4885;SDS011;2457;51.788;6.136;2022-10-15T16:15:07;4.10;;;1.40;;
4885;SDS011;2457;51.788;6.136;2022-10-15T16:17:34;3.70;;;1.20;;
4885;SDS011;2457;51.788;6.136;2022-10-15T16:20:02;5.70;;;1.40;;
4885;SDS011;2457;51.788;6.136;2022-10-15T16:22:29;3.67;;;1.20;;
4885;SDS011;2457;51.788;6.136;2022-10-15T16:24:56;3.63;;;1.30;;
4885;SDS011;2457;51.788;6.136;2022-10-15T16:27:24;5.20;;;1.57;;
4885;SDS011;2457;51.788;6.136;2022-10-15T16:29:51;3.87;;;1.33;;
4885;SDS011;2457;51.788;6.136;2022-10-15T16:32:18;3.70;;;1.30;;
4885;SDS011;2457;51.788;6.136;2022-10-15T16:34:46;4.23;;;1.30;;
4885;SDS011;2457;51.788;6.136;2022-10-15T16:37:13;3.60;;;1.20;;
4885;SDS011;2457;51.788;6.136;2022-10-15T16:39:40;5.83;;;2.37;;
4885;SDS011;2457;51.788;6.136;2022-10-15T16:42:07;7.30;;;2.70;;
4885;SDS011;2457;51.788;6.136;2022-10-15T16:44:35;9.43;;;2.50;;
4885;SDS011;2457;51.788;6.136;2022-10-15T16:47:02;6.57;;;2.50;;
4885;SDS011;2457;51.788;6.136;2022-10-15T16:49:29;4.50;;;1.50;;
4885;SDS011;2457;51.788;6.136;2022-10-15T16:51:57;4.57;;;2.00;;
4885;SDS011;2457;51.788;6.136;2022-10-15T16:54:24;4.47;;;1.60;;
4885;SDS011;2457;51.788;6.136;2022-10-15T16:56:51;4.47;;;1.70;;
4885;SDS011;2457;51.788;6.136;2022-10-15T16:59:19;4.10;;;1.37;;
4885;SDS011;2457;51.788;6.136;2022-10-15T17:01:46;4.13;;;1.40;;
4885;SDS011;2457;51.788;6.136;2022-10-15T17:04:14;4.47;;;1.60;;